createdAt,value
2019-06-20T00:01:13.578Z,98501.57
2019-06-20T00:03:43.157Z,98503.25
2019-06-20T00:06:12.385Z,98500.05
2019-06-20T00:08:41.388Z,98499.33
2019-06-20T00:11:12.260Z,98497.45
2019-06-20T00:13:41.278Z,98504.31
2019-06-20T00:16:10.453Z,98506.03
2019-06-20T00:18:39.917Z,98512.88
2019-06-20T00:21:08.998Z,98514.42
2019-06-20T00:23:38.072Z,98513.00
2019-06-20T00:26:07.221Z,98510.20
2019-06-20T00:28:36.315Z,98508.75
2019-06-20T00:31:06.925Z,98508.03
2019-06-20T00:33:35.952Z,98503.34
2019-06-20T00:36:05.164Z,98505.64
2019-06-20T00:38:34.324Z,98503.89
2019-06-20T00:41:03.526Z,98495.32
2019-06-20T00:43:32.495Z,98506.87
2019-06-20T00:46:03.611Z,98504.23
2019-06-20T00:48:32.694Z,98507.14
2019-06-20T00:51:01.835Z,98510.27
2019-06-20T00:53:30.906Z,98513.28
2019-06-20T00:56:02.134Z,98516.36
2019-06-20T00:58:31.251Z,98531.64
2019-06-20T01:01:00.349Z,98539.88
2019-06-20T01:03:29.439Z,98540.60
2019-06-20T01:05:58.515Z,98543.11
2019-06-20T01:08:29.238Z,98537.34
2019-06-20T01:10:58.283Z,98537.16
2019-06-20T01:13:33.587Z,98540.27
2019-06-20T01:15:58.176Z,98542.76
2019-06-20T01:18:27.214Z,98537.69
2019-06-20T01:20:56.338Z,98531.93
2019-06-20T01:23:25.343Z,98533.54
2019-06-20T01:25:54.466Z,98531.16
2019-06-20T01:28:23.526Z,98531.44
2019-06-20T01:30:52.621Z,98531.52
2019-06-20T01:33:21.694Z,98540.11
2019-06-20T01:35:50.762Z,98548.87
2019-06-20T01:38:19.902Z,98551.55
2019-06-20T01:40:51.058Z,98558.96
2019-06-20T01:43:20.166Z,98565.86
2019-06-20T01:45:49.209Z,98558.91
2019-06-20T01:48:20.290Z,98558.72
2019-06-20T01:50:49.307Z,98563.56
2019-06-20T01:53:18.400Z,98564.20
2019-06-20T01:55:47.427Z,98568.44
2019-06-20T01:58:16.554Z,98564.95
2019-06-20T02:00:47.393Z,98567.45
2019-06-20T02:03:16.782Z,98572.61
2019-06-20T02:05:45.921Z,98564.16
2019-06-20T02:08:15.080Z,98565.63
2019-06-20T02:10:44.099Z,98564.84
2019-06-20T02:13:13.188Z,98567.77
2019-06-20T02:15:42.454Z,98567.31
2019-06-20T02:18:11.537Z,98563.33
2019-06-20T02:20:42.960Z,98564.16
2019-06-20T02:23:14.261Z,98561.39
2019-06-20T02:25:44.578Z,98557.67
2019-06-20T02:28:13.668Z,98567.75
2019-06-20T02:30:42.705Z,98562.89
2019-06-20T02:33:11.794Z,98559.61
2019-06-20T02:35:40.825Z,98560.16
2019-06-20T02:38:11.991Z,98566.55
2019-06-20T02:40:41.003Z,98562.42
2019-06-20T02:43:10.071Z,98564.98
2019-06-20T02:45:39.224Z,98563.59
2019-06-20T02:48:08.250Z,98559.17
2019-06-20T02:50:37.274Z,98561.59
2019-06-20T02:53:06.443Z,98564.72
2019-06-20T02:55:35.456Z,98567.11
2019-06-20T02:58:04.554Z,98566.31
2019-06-20T03:00:57.797Z,98567.91
2019-06-20T03:03:27.361Z,98579.88
2019-06-20T03:05:57.660Z,98586.45
2019-06-20T03:08:26.739Z,98569.59
2019-06-20T03:10:55.813Z,98587.41
2019-06-20T03:13:24.832Z,98588.04
2019-06-20T03:15:53.860Z,98587.36
2019-06-20T03:18:22.991Z,98593.59
2019-06-20T03:20:52.107Z,98592.40
2019-06-20T03:23:21.154Z,98597.82
2019-06-20T03:25:50.212Z,98599.42
2019-06-20T03:28:21.636Z,98596.11
2019-06-20T03:30:50.700Z,98598.86
2019-06-20T03:33:19.732Z,98601.16
2019-06-20T03:35:48.727Z,98612.00
2019-06-20T03:38:17.851Z,98600.11
2019-06-20T03:40:46.911Z,98600.02
2019-06-20T03:43:15.930Z,98596.16
2019-06-20T03:45:44.957Z,98597.76
2019-06-20T03:48:14.060Z,98597.45
2019-06-20T03:50:43.089Z,98600.65
2019-06-20T03:53:12.194Z,98609.27
2019-06-20T03:55:41.260Z,98610.66
2019-06-20T03:58:10.351Z,98616.29
2019-06-20T04:00:39.492Z,98611.81
2019-06-20T04:03:08.606Z,98612.78
2019-06-20T04:05:38.137Z,98615.89
2019-06-20T04:08:09.181Z,98613.97
2019-06-20T04:10:38.242Z,98614.23
2019-06-20T04:13:07.242Z,98613.19
2019-06-20T04:15:36.308Z,98616.21
2019-06-20T04:18:05.405Z,98616.97
2019-06-20T04:20:34.459Z,98623.93
2019-06-20T04:23:03.625Z,98628.65
2019-06-20T04:25:32.877Z,98626.71
2019-06-20T04:28:01.961Z,98630.13
2019-06-20T04:30:31.113Z,98629.77
2019-06-20T04:33:00.174Z,98634.22
2019-06-20T04:35:29.284Z,98632.02
2019-06-20T04:37:58.337Z,98636.28
2019-06-20T04:40:27.416Z,98637.05
2019-06-20T04:42:56.491Z,98639.80
2019-06-20T04:45:47.370Z,98499.88
2019-06-20T04:48:16.361Z,98644.39
2019-06-20T04:50:45.461Z,98647.84
2019-06-20T04:53:17.450Z,98650.52
2019-06-20T04:55:46.559Z,98649.97
2019-06-20T04:58:15.604Z,98660.87
2019-06-20T05:00:44.955Z,98654.63
2019-06-20T05:03:14.470Z,98655.66
2019-06-20T05:05:43.489Z,98647.72
2019-06-20T05:08:12.507Z,98657.27
2019-06-20T05:10:41.594Z,98656.41
2019-06-20T05:13:10.601Z,98668.67
2019-06-20T05:15:52.167Z,98666.09
2019-06-20T05:18:10.438Z,98667.40
2019-06-20T05:20:39.495Z,98672.64
2019-06-20T05:23:08.522Z,98676.25
2019-06-20T05:25:37.563Z,98669.25
2019-06-20T05:28:06.561Z,98671.72
2019-06-20T05:30:35.732Z,98680.98
2019-06-20T05:33:04.783Z,98677.13
2019-06-20T05:35:33.882Z,98675.37
2019-06-20T05:38:02.997Z,98676.94
2019-06-20T05:40:32.149Z,98675.55
2019-06-20T05:43:01.210Z,98676.53
2019-06-20T05:45:30.340Z,98671.95
2019-06-20T05:47:59.436Z,98670.91
2019-06-20T05:50:28.468Z,98664.21
2019-06-20T05:52:59.866Z,98652.67
2019-06-20T05:55:28.954Z,98666.81
2019-06-20T05:57:59.401Z,98661.81
2019-06-20T06:00:28.614Z,98673.15
2019-06-20T06:02:59.705Z,98662.06
2019-06-20T06:05:28.768Z,98657.78
2019-06-20T06:07:59.894Z,98653.56
2019-06-20T06:10:28.978Z,98649.64
2019-06-20T06:12:59.396Z,98661.28
2019-06-20T06:15:28.460Z,98661.80
2019-06-20T06:17:59.934Z,98657.54
2019-06-20T06:20:28.971Z,98662.96
2019-06-20T06:22:58.424Z,98655.62
2019-06-20T06:25:27.501Z,98652.89
2019-06-20T06:27:56.662Z,98658.06
2019-06-20T06:30:25.814Z,98656.67
2019-06-20T06:32:54.824Z,98653.53
2019-06-20T06:35:23.935Z,98641.20
2019-06-20T06:37:52.980Z,98645.30
2019-06-20T06:40:22.538Z,98646.17
2019-06-20T06:42:51.576Z,98646.17
2019-06-20T06:45:22.205Z,98643.11
2019-06-20T06:47:51.295Z,98641.20
2019-06-20T06:50:20.523Z,98632.81
2019-06-20T06:52:49.609Z,98645.14
2019-06-20T06:55:19.116Z,98645.42
2019-06-20T06:57:48.188Z,98650.83
2019-06-20T07:00:19.501Z,98653.88
2019-06-20T07:02:48.604Z,98645.97
2019-06-20T07:05:17.650Z,98652.22
2019-06-20T07:07:46.856Z,98659.05
2019-06-20T07:10:15.898Z,98660.87
2019-06-20T07:12:44.936Z,98659.13
2019-06-20T07:15:14.001Z,98658.91
2019-06-20T07:17:43.087Z,98660.21
2019-06-20T07:20:15.124Z,98656.28
2019-06-20T07:22:43.214Z,98665.83
2019-06-20T07:25:12.340Z,98662.92
2019-06-20T07:27:41.416Z,98660.06
2019-06-20T07:30:10.575Z,98660.06
2019-06-20T07:32:39.610Z,98682.64
2019-06-20T07:35:08.708Z,98680.55
2019-06-20T07:37:40.067Z,98677.39
2019-06-20T07:40:09.135Z,98674.28
2019-06-20T07:42:38.252Z,98679.39
2019-06-20T07:45:07.553Z,98680.41
2019-06-20T07:47:36.693Z,98677.98
2019-06-20T07:50:06.976Z,98684.96
2019-06-20T07:52:37.827Z,98681.77
2019-06-20T07:55:06.992Z,98684.80
2019-06-20T07:57:36.130Z,98681.83
2019-06-20T08:00:07.128Z,98680.80
2019-06-20T08:02:36.246Z,98682.73
2019-06-20T08:05:05.950Z,98677.67
2019-06-20T08:07:35.056Z,98679.13
2019-06-20T08:10:04.709Z,98675.13
2019-06-20T08:12:33.809Z,98677.92
2019-06-20T08:15:14.601Z,98679.05
2019-06-20T08:17:35.636Z,98671.75
2019-06-20T08:20:05.643Z,98666.58
2019-06-20T08:22:34.818Z,98678.02
2019-06-20T08:25:05.407Z,98678.30
2019-06-20T08:27:50.741Z,98669.20
2019-06-20T08:30:24.734Z,98673.88
2019-06-20T08:32:53.908Z,98678.20
2019-06-20T08:35:25.017Z,98675.25
2019-06-20T08:37:54.441Z,98687.67
2019-06-20T08:40:27.555Z,98681.69
2019-06-20T08:42:57.130Z,98688.73
2019-06-20T08:45:30.148Z,98689.25
2019-06-20T08:48:00.159Z,98682.47
2019-06-20T08:50:29.826Z,98675.94
2019-06-20T08:53:02.078Z,98682.12
2019-06-20T08:55:33.619Z,98680.14
2019-06-20T08:58:03.466Z,98676.13
2019-06-20T09:00:32.987Z,98680.81
2019-06-20T09:05:32.071Z,98675.87
2019-06-20T09:10:39.908Z,98654.34
2019-06-20T09:13:09.908Z,98667.44
2019-06-20T09:15:40.071Z,98670.05
2019-06-20T09:18:09.126Z,98670.77
2019-06-20T09:20:38.152Z,98671.63
2019-06-20T09:23:07.202Z,98675.80
2019-06-20T09:25:37.268Z,98674.97
2019-06-20T09:28:06.559Z,98675.41
2019-06-20T09:30:35.944Z,98674.78
2019-06-20T09:33:05.100Z,98673.39
2019-06-20T09:35:34.206Z,98676.84
2019-06-20T09:38:03.504Z,98671.88
2019-06-20T09:40:32.788Z,98675.17
2019-06-20T09:43:02.925Z,98677.20
2019-06-20T09:45:32.060Z,98676.95
2019-06-20T09:48:02.541Z,98672.66
2019-06-20T09:50:31.838Z,98678.59
2019-06-20T09:53:00.851Z,98674.06
2019-06-20T09:55:29.911Z,98681.08
2019-06-20T09:57:58.964Z,98688.42
2019-06-20T10:00:29.092Z,98689.62
2019-06-20T10:02:59.240Z,98692.64
2019-06-20T10:05:28.327Z,98693.27
2019-06-20T10:07:59.628Z,98692.39
2019-06-20T10:10:29.172Z,98695.73
2019-06-20T10:12:58.314Z,98692.53
2019-06-20T10:15:29.979Z,98689.30
2019-06-20T10:17:59.013Z,98685.73
2019-06-20T10:20:28.198Z,98695.52
2019-06-20T10:22:57.520Z,98698.50
2019-06-20T10:25:26.743Z,98698.77
2019-06-20T10:27:55.775Z,98702.39
2019-06-20T10:30:24.937Z,98690.95
2019-06-20T10:32:54.003Z,98692.89
2019-06-20T10:35:23.124Z,98691.09
2019-06-20T10:37:53.011Z,98688.38
2019-06-20T10:40:23.809Z,98694.98
2019-06-20T10:42:53.196Z,98694.75
2019-06-20T10:45:22.675Z,98687.48
2019-06-20T10:47:52.890Z,98688.95
2019-06-20T10:50:22.225Z,98687.77
2019-06-20T10:52:54.922Z,98681.22
2019-06-20T10:55:26.404Z,98675.68
2019-06-20T10:57:55.524Z,98681.39
2019-06-20T11:00:31.460Z,98679.56
2019-06-20T11:02:55.738Z,98674.38
2019-06-20T11:05:27.880Z,98686.22
2019-06-20T11:07:56.954Z,98684.58
2019-06-20T11:10:26.069Z,98684.55
2019-06-20T11:12:56.302Z,98686.16
2019-06-20T11:15:25.620Z,98687.30
2019-06-20T11:17:56.686Z,98685.33
2019-06-20T11:20:25.493Z,98683.73
2019-06-20T11:22:54.568Z,98688.28
2019-06-20T11:25:23.604Z,98663.86
2019-06-20T11:27:52.603Z,98691.61
2019-06-20T11:30:21.697Z,98678.58
2019-06-20T11:32:50.734Z,98682.90
2019-06-20T11:35:19.800Z,98691.27
2019-06-20T11:37:48.849Z,98687.61
2019-06-20T11:40:17.980Z,98666.28
2019-06-20T11:42:47.084Z,98666.28
2019-06-20T11:45:16.122Z,98671.47
2019-06-20T11:47:45.211Z,98672.91
2019-06-20T11:50:17.321Z,98673.60
2019-06-20T11:52:46.474Z,98674.23
2019-06-20T11:55:15.633Z,98676.41
2019-06-20T11:57:44.826Z,98670.54
2019-06-20T12:00:13.929Z,98662.00
2019-06-20T12:02:46.038Z,98663.31
2019-06-20T12:05:15.354Z,98651.34
2019-06-20T12:07:45.647Z,98660.53
2019-06-20T12:10:15.116Z,98655.53
2019-06-20T12:12:49.165Z,98652.78
2019-06-20T12:15:24.985Z,98657.97
2019-06-20T12:17:54.118Z,98649.84
2019-06-20T12:20:23.201Z,98642.74
2019-06-20T12:22:52.599Z,98641.90
2019-06-20T12:25:21.675Z,98638.91
2019-06-20T12:27:50.998Z,98652.87
2019-06-20T12:30:20.381Z,98643.97
2019-06-20T12:32:49.658Z,98637.73
2019-06-20T12:35:19.242Z,98642.66
2019-06-20T12:37:49.832Z,98632.39
2019-06-20T12:40:19.427Z,98648.50
2019-06-20T12:42:49.296Z,98653.75
2019-06-20T12:45:18.555Z,98646.38
2019-06-20T12:47:47.675Z,98642.17
2019-06-20T12:50:19.699Z,98652.88
2019-06-20T12:52:49.693Z,98652.89
2019-06-20T12:55:19.988Z,98645.06
2019-06-20T12:57:49.043Z,98649.77
2019-06-20T13:00:19.696Z,98648.25
2019-06-20T13:02:49.742Z,98651.17
2019-06-20T13:05:19.200Z,98644.00
2019-06-20T13:07:48.306Z,98630.00
2019-06-20T13:10:17.532Z,98614.77
2019-06-20T13:12:46.603Z,98632.25
2019-06-20T13:15:15.622Z,98634.43
2019-06-20T13:17:45.073Z,98638.51
2019-06-20T13:20:14.736Z,98637.02
2019-06-20T13:22:44.827Z,98635.91
2019-06-20T13:25:17.761Z,98627.95
2019-06-20T13:27:47.859Z,98620.02
2019-06-20T13:30:17.030Z,98618.31
2019-06-20T13:32:47.205Z,98629.63
2019-06-20T13:35:19.731Z,98629.56
2019-06-20T13:37:53.108Z,98635.67
2019-06-20T13:40:22.118Z,98637.16
2019-06-20T13:42:54.473Z,98664.48
2019-06-20T13:45:25.950Z,98644.66
2019-06-20T13:47:55.823Z,98638.61
2019-06-20T13:50:25.790Z,98641.73
2019-06-20T13:52:54.954Z,98641.73
2019-06-20T13:55:25.361Z,98626.96
2019-06-20T13:57:54.573Z,98640.84
2019-06-20T14:00:24.134Z,98646.33
2019-06-20T14:02:53.247Z,98635.06
2019-06-20T14:05:22.289Z,98633.04
2019-06-20T14:07:53.827Z,98635.98
2019-06-20T14:10:22.747Z,98628.46
2019-06-20T14:12:51.959Z,98646.42
2019-06-20T14:15:21.353Z,98643.03
2019-06-20T14:17:50.733Z,98646.61
2019-06-20T14:20:20.566Z,98640.67
2019-06-20T14:22:49.859Z,98633.12
2019-06-20T14:25:18.905Z,98627.94
2019-06-20T14:27:49.004Z,98634.09
2019-06-20T14:30:19.059Z,98634.66
2019-06-20T14:32:49.418Z,98630.36
2019-06-20T14:35:19.274Z,98629.66
2019-06-20T14:37:51.350Z,98630.34
2019-06-20T14:40:22.340Z,98629.22
2019-06-20T14:42:52.344Z,98626.31
2019-06-20T14:45:22.772Z,98632.50
2019-06-20T14:47:52.626Z,98637.48
2019-06-20T14:50:21.966Z,98636.91
2019-06-20T14:52:52.140Z,98636.43
2019-06-20T14:55:21.434Z,98631.78
2019-06-20T14:57:52.318Z,98622.99
2019-06-20T15:00:23.282Z,98632.30
2019-06-20T15:02:58.394Z,98632.22
2019-06-20T15:05:29.368Z,98631.47
2019-06-20T15:07:58.512Z,98627.50
2019-06-20T15:10:27.728Z,98634.81
2019-06-20T15:12:56.911Z,98644.19
2019-06-20T15:15:27.096Z,98642.34
2019-06-20T15:17:58.100Z,98654.58
2019-06-20T15:20:26.972Z,98652.71
2019-06-20T15:22:56.605Z,98650.52
2019-06-20T15:25:26.663Z,98649.83
2019-06-20T15:27:57.027Z,98649.65
2019-06-20T15:30:27.468Z,98649.65
2019-06-20T15:33:08.586Z,98658.48
2019-06-20T15:35:29.680Z,98652.71
2019-06-20T15:37:58.740Z,98652.22
2019-06-20T15:40:27.800Z,98659.94
2019-06-20T15:42:57.396Z,98654.23
2019-06-20T15:45:27.621Z,98654.23
2019-06-20T15:47:56.623Z,98661.95
2019-06-20T15:50:25.793Z,98673.16
2019-06-20T15:52:54.890Z,98674.48
2019-06-20T15:55:26.026Z,98680.52
2019-06-20T15:57:55.088Z,98680.52
2019-06-20T16:00:24.222Z,98681.39
2019-06-20T16:03:08.425Z,98683.43
2019-06-20T16:05:24.971Z,98683.43
2019-06-20T16:07:53.973Z,98685.73
2019-06-20T16:10:24.209Z,98690.66
2019-06-20T16:12:53.252Z,98682.53
2019-06-20T16:15:22.344Z,98691.27
2019-06-20T16:17:51.485Z,98698.50
2019-06-20T16:20:20.929Z,98696.02
2019-06-20T16:22:50.069Z,98704.63
2019-06-20T16:25:19.109Z,98712.98
2019-06-20T16:27:49.286Z,98704.08
2019-06-20T16:30:18.404Z,98703.05
2019-06-20T16:32:47.812Z,98711.21
2019-06-20T16:35:21.051Z,98707.05
2019-06-20T16:37:50.207Z,98711.46
2019-06-20T16:40:49.170Z,98710.27
2019-06-20T16:43:18.201Z,98707.64
2019-06-20T16:45:47.254Z,98711.84
2019-06-20T16:48:16.336Z,98712.23
2019-06-20T16:50:45.393Z,98710.56
2019-06-20T16:53:14.468Z,98716.53
2019-06-20T16:55:43.521Z,98710.70
2019-06-20T16:58:12.851Z,98704.44
2019-06-20T17:00:42.123Z,98714.73
2019-06-20T17:03:11.317Z,98721.83
2019-06-20T17:05:40.470Z,98711.11
2019-06-20T17:08:09.483Z,98713.73
2019-06-20T17:10:40.681Z,98720.11
2019-06-20T17:13:09.784Z,98720.34
2019-06-20T17:15:39.221Z,98720.31
2019-06-20T17:18:08.345Z,98723.34
2019-06-20T17:20:37.370Z,98726.54
2019-06-20T17:23:06.481Z,98732.03
2019-06-20T17:25:35.532Z,98732.62
2019-06-20T17:28:04.595Z,98733.17
2019-06-20T17:30:35.770Z,98736.09
2019-06-20T17:33:04.850Z,98742.78
2019-06-20T17:35:33.899Z,98744.64
2019-06-20T17:38:03.884Z,98742.31
2019-06-20T17:40:32.931Z,98740.16
2019-06-20T17:43:03.289Z,98751.95
2019-06-20T17:45:32.347Z,98758.80
2019-06-20T17:50:40.109Z,98770.34
2019-06-20T17:53:09.247Z,98768.03
2019-06-20T17:55:39.750Z,98771.79
2019-06-20T17:58:09.458Z,98776.84
2019-06-20T18:00:38.801Z,98781.08
2019-06-20T18:03:08.005Z,98786.81
2019-06-20T18:05:37.217Z,98791.00
2019-06-20T18:08:15.070Z,98795.33
2019-06-20T18:10:37.270Z,98798.06
2019-06-20T18:13:06.484Z,98803.39
2019-06-20T18:15:35.607Z,98805.27
2019-06-20T18:18:04.639Z,98811.29
2019-06-20T18:20:33.783Z,98809.76
2019-06-20T18:23:05.189Z,98808.92
2019-06-20T18:25:34.228Z,98812.63
2019-06-20T18:28:04.597Z,98814.63
2019-06-20T18:30:40.297Z,98819.83
2019-06-20T18:33:09.640Z,98824.38
2019-06-20T18:35:39.872Z,98825.25
2019-06-20T18:38:09.057Z,98822.96
2019-06-20T18:40:38.261Z,98831.92
2019-06-20T18:43:07.836Z,98841.86
2019-06-20T18:45:37.035Z,98849.09
2019-06-20T18:48:07.909Z,98847.41
2019-06-20T18:50:37.078Z,98855.92
2019-06-20T18:53:06.216Z,98867.93
2019-06-20T18:55:35.324Z,98866.61
2019-06-20T18:58:06.650Z,98870.80
2019-06-20T19:00:36.746Z,98872.41
2019-06-20T19:03:37.214Z,98883.35
2019-06-20T19:06:06.269Z,98885.66
2019-06-20T19:08:35.647Z,98894.67
2019-06-20T19:11:04.994Z,98892.03
2019-06-20T19:13:35.351Z,98899.80
2019-06-20T19:16:08.450Z,98899.70
2019-06-20T19:18:38.122Z,98903.52
2019-06-20T19:21:07.663Z,98907.38
2019-06-20T19:23:40.201Z,98913.70
2019-06-20T19:26:11.081Z,98913.91
2019-06-20T19:28:40.209Z,98914.70
2019-06-20T19:31:10.279Z,98917.20
2019-06-20T19:33:40.457Z,98915.59
2019-06-20T19:36:09.573Z,98791.70
2019-06-20T19:38:38.721Z,98926.41
2019-06-20T19:41:07.987Z,98931.88
2019-06-20T19:43:37.090Z,98936.07
2019-06-20T19:46:06.244Z,98941.19
2019-06-20T19:48:36.864Z,98945.55
2019-06-20T19:51:06.192Z,98942.11
2019-06-20T19:53:36.613Z,98949.61
2019-06-20T19:56:05.752Z,98952.00
2019-06-20T19:58:34.869Z,98947.28
2019-06-20T20:01:04.111Z,98955.67
2019-06-20T20:03:35.300Z,98951.38
2019-06-20T20:06:06.710Z,98958.62
2019-06-20T20:08:37.137Z,98951.39
2019-06-20T20:11:06.299Z,98948.44
2019-06-20T20:13:35.443Z,98950.83
2019-06-20T20:16:04.703Z,98955.39
2019-06-20T20:18:33.867Z,98966.03
2019-06-20T20:21:04.902Z,98976.15
2019-06-20T20:23:34.265Z,98975.58
2019-06-20T20:26:03.493Z,98972.98
2019-06-20T20:28:32.731Z,98973.91
2019-06-20T20:31:02.036Z,98967.05
2019-06-20T20:33:31.164Z,98970.22
2019-06-20T20:36:02.186Z,98970.23
2019-06-20T20:38:31.566Z,98965.92
2019-06-20T20:41:00.706Z,98960.42
2019-06-20T20:43:29.800Z,98964.36
2019-06-20T20:46:02.982Z,98962.56
2019-06-20T20:48:32.538Z,98970.94
2019-06-20T20:51:01.928Z,98972.33
2019-06-20T20:53:33.234Z,98968.27
2019-06-20T20:56:02.674Z,98964.98
2019-06-20T20:58:32.015Z,98966.36
2019-06-20T21:01:15.717Z,98976.15
2019-06-20T21:03:44.903Z,98976.89
2019-06-20T21:06:14.098Z,98968.80
2019-06-20T21:08:43.732Z,98976.96
2019-06-20T21:11:12.916Z,98967.48
2019-06-20T21:13:42.220Z,98976.17
2019-06-20T21:16:11.560Z,98978.16
2019-06-20T21:18:41.165Z,98984.02
2019-06-20T21:21:10.429Z,98982.91
2019-06-20T21:23:39.702Z,98991.92
2019-06-20T21:26:10.970Z,98985.04
2019-06-20T21:28:40.173Z,98986.44
2019-06-20T21:31:11.699Z,98987.98
2019-06-20T21:33:40.890Z,98991.83
2019-06-20T21:39:03.083Z,98990.46
2019-06-20T21:41:34.301Z,98995.34
2019-06-20T21:44:05.757Z,98999.09
2019-06-20T21:46:35.935Z,99003.13
2019-06-20T21:49:05.054Z,98999.41
2019-06-20T21:51:34.152Z,99007.64
2019-06-20T21:54:03.299Z,99006.23
2019-06-20T21:56:32.435Z,99011.39
2019-06-20T21:59:02.216Z,99011.33
2019-06-20T22:01:31.355Z,99011.94
2019-06-20T22:04:00.521Z,99013.63
2019-06-20T22:06:29.686Z,99016.41
2019-06-20T22:09:22.310Z,99004.14
2019-06-20T22:13:14.361Z,99008.22
2019-06-20T22:19:09.508Z,99008.17
2019-06-20T22:22:30.135Z,99009.39
2019-06-20T22:28:45.060Z,99017.59
2019-06-20T22:31:14.238Z,99026.92
2019-06-20T22:33:43.694Z,99029.61
2019-06-20T22:36:13.105Z,99022.75
2019-06-20T22:39:03.473Z,99020.50
2019-06-20T22:41:34.241Z,99026.08
2019-06-20T22:44:03.641Z,99026.01
2019-06-20T22:46:32.845Z,99028.52
2019-06-20T22:49:04.129Z,99024.38
2019-06-20T22:51:33.283Z,99025.94
2019-06-20T22:54:02.479Z,99029.50
2019-06-20T22:56:31.862Z,99027.45
2019-06-20T22:59:01.020Z,99035.05
2019-06-20T23:01:30.246Z,99037.63
2019-06-20T23:03:59.587Z,99035.20
2019-06-20T23:06:28.815Z,99038.94
2019-06-20T23:08:59.829Z,99039.00
2019-06-20T23:11:31.216Z,99040.66
2019-06-20T23:14:00.335Z,99046.70
2019-06-20T23:16:29.446Z,99049.13
2019-06-20T23:19:00.855Z,99049.53
2019-06-20T23:21:29.959Z,99053.23
2019-06-20T23:23:59.096Z,99052.62
2019-06-20T23:26:30.078Z,99046.52
2019-06-20T23:29:16.849Z,99050.00
2019-06-20T23:31:45.950Z,99046.27
2019-06-20T23:34:15.119Z,99050.82
2019-06-20T23:36:44.223Z,99049.05
2019-06-20T23:39:14.672Z,99049.14
2019-06-20T23:41:43.796Z,99050.78
2019-06-20T23:44:12.942Z,99048.05
2019-06-20T23:46:42.039Z,99048.09
2019-06-20T23:49:11.122Z,99039.65
2019-06-20T23:51:45.599Z,99039.43
2019-06-20T23:54:14.711Z,99041.91
2019-06-20T23:56:43.884Z,99044.77
2019-06-20T23:59:13.077Z,99048.37
